Time;durP1;ratioP1;P1;durP2;ratioP2;P2;SDS_P1;SDS_P2;PMS_P1;PMS_P2;Temp;Humidity;BMP_temperature;BMP_pressure;BME280_temperature;BME280_humidity;BME280_pressure;Samples;Min_cycle;Max_cycle;Signal;HPM_P1;HPM_P2
2022/05/05 00:00:43;;;;;;;12.52;4.13;;;;;;;12.17;91.19;96753.09;5047967;28;20051;-74
2022/05/05 00:03:08;;;;;;;8.63;4.00;;;;;;;11.96;94.17;96754.72;5047006;28;20055;-73
2022/05/05 00:05:34;;;;;;;13.80;4.32;;;;;;;11.69;98.26;96746.56;5049653;28;20041;-72
2022/05/05 00:07:59;;;;;;;10.40;4.25;;;;;;;11.53;99.21;96753.59;5048368;28;20086;-74
2022/05/05 00:15:54;;;;;;;9.73;4.18;;;;;;;11.37;97.01;96749.91;5049218;28;20029;-73
2022/05/05 00:18:19;;;;;;;9.73;3.97;;;;;;;11.29;97.75;96744.97;5046140;28;20029;-76
2022/05/05 00:20:45;;;;;;;8.40;4.15;;;;;;;11.19;100.00;96747.47;5048360;28;20037;-73
2022/05/05 00:23:11;;;;;;;9.77;4.05;;;;;;;11.06;100.00;96753.19;5046719;28;20044;-72
2022/05/05 00:25:36;;;;;;;10.55;4.15;;;;;;;11.19;99.95;96752.00;5051278;28;20040;-73
2022/05/05 00:28:02;;;;;;;7.65;3.88;;;;;;;10.90;100.00;96748.63;5049259;28;20399;-75
2022/05/05 00:30:27;;;;;;;8.55;4.32;;;;;;;10.72;100.00;96746.97;5048724;28;20159;-73
2022/05/05 00:32:52;;;;;;;9.55;4.25;;;;;;;10.71;100.00;96754.19;5048093;28;20521;-74
2022/05/05 00:35:18;;;;;;;7.25;3.88;;;;;;;10.39;100.00;96750.41;5048074;28;20649;-73
2022/05/05 00:37:43;;;;;;;6.97;4.20;;;;;;;10.43;100.00;96749.72;5047149;28;20468;-73
2022/05/05 00:40:09;;;;;;;12.00;4.30;;;;;;;10.43;100.00;96746.22;5047948;28;20576;-75
2022/05/05 00:42:36;;;;;;;11.32;4.22;;;;;;;10.47;100.00;96745.50;5050743;28;20032;-74
2022/05/05 00:45:01;;;;;;;8.02;4.18;;;;;;;10.28;100.00;96750.25;5049340;28;20127;-76
2022/05/05 00:47:27;;;;;;;12.55;4.68;;;;;;;10.31;100.00;96757.78;5048445;28;20112;-74
2022/05/05 00:49:53;;;;;;;10.95;4.65;;;;;;;10.32;100.00;96756.72;5049009;28;20500;-72
2022/05/05 00:52:18;;;;;;;11.48;4.60;;;;;;;10.39;100.00;96747.75;5045365;28;20400;-73
2022/05/05 00:54:44;;;;;;;13.82;4.68;;;;;;;10.24;100.00;96746.41;5048594;28;20116;-72
2022/05/05 00:57:10;;;;;;;10.38;5.22;;;;;;;10.18;100.00;96752.69;5047498;28;20407;-73
2022/05/05 00:59:37;;;;;;;8.73;4.95;;;;;;;10.35;100.00;96757.28;5047800;28;20510;-73
2022/05/05 01:02:03;;;;;;;9.73;4.30;;;;;;;10.24;100.00;96749.09;5046190;28;20087;-75
2022/05/05 01:04:31;;;;;;;12.13;4.95;;;;;;;10.29;100.00;96756.41;5047618;28;20147;-73
2022/05/05 01:06:59;;;;;;;13.30;4.93;;;;;;;10.48;100.00;96759.69;5047598;28;20091;-74
2022/05/05 01:09:25;;;;;;;10.55;5.22;;;;;;;10.37;100.00;96763.22;5048594;28;20426;-74
2022/05/05 01:11:51;;;;;;;9.63;5.00;;;;;;;10.29;100.00;96753.72;5047957;28;20040;-73
2022/05/05 01:14:16;;;;;;;9.55;5.05;;;;;;;10.04;100.00;96759.38;5050489;28;20055;-73
2022/05/05 01:16:42;;;;;;;10.77;4.55;;;;;;;10.20;100.00;96761.28;5050076;28;20041;-74
2022/05/05 01:19:08;;;;;;;7.97;5.07;;;;;;;10.33;100.00;96753.00;5047308;28;20070;-77
2022/05/05 01:21:33;;;;;;;13.15;5.32;;;;;;;10.26;100.00;96757.69;5049070;28;20037;-73
2022/05/05 01:23:59;;;;;;;10.77;4.85;;;;;;;10.12;100.00;96752.84;5051286;28;20048;-72
2022/05/05 01:29:11;;;;;;;12.65;5.18;;;;;;;10.10;100.00;96750.38;5050539;28;20048;-73
2022/05/05 01:31:40;;;;;;;9.63;4.50;;;;;;;9.97;100.00;96748.81;5048869;28;20537;-74
2022/05/05 01:34:05;;;;;;;9.55;4.82;;;;;;;10.05;100.00;96747.63;5048810;28;20120;-73
2022/05/05 01:36:31;;;;;;;12.52;5.30;;;;;;;10.15;100.00;96757.69;5048653;28;20036;-74
2022/05/05 01:38:56;;;;;;;11.98;5.10;;;;;;;10.31;100.00;96760.44;5051505;28;20048;-73
2022/05/05 01:41:22;;;;;;;12.18;5.10;;;;;;;10.44;100.00;96756.69;5047310;28;20392;-74
2022/05/05 01:43:47;;;;;;;12.43;4.82;;;;;;;10.36;100.00;96757.06;5048388;28;20044;-76
2022/05/05 01:46:14;;;;;;;13.40;4.75;;;;;;;10.47;100.00;96756.19;5048915;28;20032;-74
2022/05/05 01:48:39;;;;;;;13.52;4.55;;;;;;;10.55;100.00;96761.16;5045985;28;20118;-73
2022/05/05 01:51:05;;;;;;;9.55;4.63;;;;;;;10.46;100.00;96767.13;5046499;28;20123;-74
2022/05/05 01:53:37;;;;;;;9.63;4.28;;;;;;;10.38;100.00;96770.19;5049197;28;20059;-74
2022/05/05 01:56:11;;;;;;;10.00;3.97;;;;;;;10.43;100.00;96770.31;5050232;28;20052;-75
2022/05/05 01:58:38;;;;;;;10.60;4.32;;;;;;;10.42;100.00;96774.00;5047299;28;20079;-74
2022/05/05 02:01:06;;;;;;;9.20;4.50;;;;;;;10.32;100.00;96761.25;5046685;28;20313;-73
2022/05/05 02:03:32;;;;;;;8.73;4.18;;;;;;;10.35;100.00;96771.50;5050305;28;20060;-74
2022/05/05 02:05:58;;;;;;;8.10;4.22;;;;;;;10.24;100.00;96775.03;5050563;28;20076;-76
2022/05/05 02:08:23;;;;;;;8.93;4.47;;;;;;;10.29;100.00;96775.94;5048930;28;20554;-73
2022/05/05 02:10:49;;;;;;;10.52;4.18;;;;;;;10.27;100.00;96775.38;5049440;28;20059;-76
2022/05/05 02:13:15;;;;;;;12.45;5.07;;;;;;;10.29;100.00;96769.78;5047227;28;20464;-75
2022/05/05 02:15:40;;;;;;;7.13;4.32;;;;;;;10.23;100.00;96768.88;5048861;28;20036;-72
2022/05/05 02:18:08;;;;;;;7.55;4.05;;;;;;;10.11;100.00;96770.72;5048180;28;20117;-73
2022/05/05 02:20:34;;;;;;;10.90;4.75;;;;;;;10.12;100.00;96760.88;5053279;28;20387;-73
2022/05/05 02:22:59;;;;;;;10.30;4.30;;;;;;;10.25;100.00;96766.75;5047842;28;20059;-75
2022/05/05 02:25:25;;;;;;;12.68;4.18;;;;;;;10.22;100.00;96769.91;5048672;28;20041;-73
2022/05/05 02:27:52;;;;;;;11.57;4.78;;;;;;;10.17;100.00;96766.28;5049228;28;20033;-75
2022/05/05 02:30:20;;;;;;;8.68;4.32;;;;;;;10.15;100.00;96769.22;5047465;28;20487;-74
2022/05/05 02:32:45;;;;;;;7.13;4.10;;;;;;;10.19;100.00;96775.69;5050724;28;20037;-77
2022/05/05 02:35:12;;;;;;;8.25;4.70;;;;;;;10.11;100.00;96778.75;5047661;28;20620;-73
2022/05/05 02:40:22;;;;;;;10.90;4.93;;;;;;;10.13;100.00;96776.66;5047851;28;20044;-73
2022/05/05 02:42:47;;;;;;;11.75;4.57;;;;;;;10.26;100.00;96772.91;5048766;28;20526;-73
2022/05/05 02:45:13;;;;;;;11.38;4.50;;;;;;;10.30;100.00;96774.06;5048482;28;20303;-74
2022/05/05 02:47:38;;;;;;;8.70;4.70;;;;;;;10.27;100.00;96772.69;5046597;28;20045;-73
2022/05/05 02:50:04;;;;;;;8.52;4.55;;;;;;;10.16;100.00;96770.81;5047141;28;20045;-74
2022/05/05 02:52:30;;;;;;;16.98;5.43;;;;;;;9.95;100.00;96774.94;5046517;28;20075;-77
2022/05/05 02:54:56;;;;;;;9.20;4.95;;;;;;;9.96;100.00;96765.91;5047793;28;20053;-72
2022/05/05 02:57:23;;;;;;;13.35;4.90;;;;;;;10.03;100.00;96773.78;5049197;28;20123;-73
2022/05/05 02:59:55;;;;;;;12.43;6.07;;;;;;;10.09;100.00;96775.50;5047811;28;20049;-74
2022/05/05 03:02:22;;;;;;;8.82;4.47;;;;;;;10.09;100.00;96772.81;5048086;28;20041;-73
2022/05/05 03:04:48;;;;;;;13.68;4.50;;;;;;;10.02;100.00;96772.16;5053644;28;20062;-73
2022/05/05 03:07:15;;;;;;;11.57;4.60;;;;;;;10.01;100.00;96773.19;5049817;28;20041;-74
2022/05/05 03:09:41;;;;;;;9.40;4.45;;;;;;;9.90;100.00;96771.38;5050439;28;20044;-75
2022/05/05 03:12:08;;;;;;;12.98;5.20;;;;;;;9.76;100.00;96766.28;5050282;28;20476;-74
2022/05/05 03:14:33;;;;;;;9.45;4.68;;;;;;;9.75;100.00;96772.69;5050135;28;20044;-73
2022/05/05 03:16:58;;;;;;;11.10;4.57;;;;;;;9.86;100.00;96773.69;5050574;28;20052;-76
2022/05/05 03:19:26;;;;;;;10.55;4.40;;;;;;;9.81;100.00;96772.81;5048300;28;20033;-75
2022/05/05 03:21:52;;;;;;;11.18;5.15;;;;;;;9.86;100.00;96767.53;5048842;28;20048;-73
2022/05/05 03:24:17;;;;;;;12.20;4.72;;;;;;;9.72;100.00;96775.00;5050439;28;20429;-74
2022/05/05 03:26:43;;;;;;;8.48;4.57;;;;;;;9.80;100.00;96771.16;5047830;28;20056;-73
2022/05/05 03:29:08;;;;;;;8.23;4.32;;;;;;;9.68;100.00;96766.66;5048970;28;20044;-73
2022/05/05 03:31:34;;;;;;;10.13;4.82;;;;;;;9.76;100.00;96776.97;5048463;28;20195;-73
2022/05/05 03:33:59;;;;;;;10.23;4.80;;;;;;;9.82;100.00;96779.78;5050703;28;20040;-73
2022/05/05 03:36:25;;;;;;;11.25;4.45;;;;;;;9.84;100.00;96783.81;5046711;28;20127;-73
2022/05/05 03:38:51;;;;;;;11.50;4.28;;;;;;;9.71;100.00;96778.72;5049057;28;20058;-73
2022/05/05 03:41:16;;;;;;;15.05;5.20;;;;;;;9.47;100.00;96789.44;5047969;28;20103;-73
2022/05/05 03:43:42;;;;;;;11.10;4.47;;;;;;;9.37;100.00;96789.22;5050079;28;20655;-73
2022/05/05 03:46:07;;;;;;;11.75;4.45;;;;;;;9.25;100.00;96784.91;5049472;28;20167;-76
2022/05/05 03:48:33;;;;;;;13.93;5.15;;;;;;;9.08;100.00;96780.25;5047209;28;20036;-75
2022/05/05 03:50:59;;;;;;;16.33;4.60;;;;;;;9.06;100.00;96789.53;5048506;28;20717;-75
2022/05/05 03:53:25;;;;;;;12.27;4.20;;;;;;;8.97;100.00;96791.75;5046317;28;20407;-74
2022/05/05 03:55:50;;;;;;;9.27;3.95;;;;;;;8.83;100.00;96801.81;5047802;28;20559;-74
2022/05/05 03:58:16;;;;;;;10.30;3.78;;;;;;;8.81;100.00;96803.91;5048757;28;20046;-73
2022/05/05 04:00:43;;;;;;;7.65;3.42;;;;;;;8.72;100.00;96802.59;5050460;28;20043;-74
2022/05/05 04:05:52;;;;;;;8.60;3.88;;;;;;;8.44;100.00;96803.19;5047186;28;20049;-76
2022/05/05 04:08:18;;;;;;;8.80;3.80;;;;;;;8.19;100.00;96802.50;5048600;28;20049;-74
2022/05/05 04:10:43;;;;;;;9.27;3.80;;;;;;;8.22;100.00;96810.03;5047423;28;20041;-75
2022/05/05 04:13:08;;;;;;;10.38;3.95;;;;;;;8.18;100.00;96815.00;5046425;28;20051;-73
2022/05/05 04:15:34;;;;;;;13.13;5.07;;;;;;;8.11;100.00;96806.28;5046271;28;20044;-75
2022/05/05 04:18:00;;;;;;;9.10;4.70;;;;;;;8.09;100.00;96814.50;5047346;28;20038;-75
2022/05/05 04:20:26;;;;;;;11.27;4.93;;;;;;;8.16;100.00;96813.59;5047827;28;20036;-74
2022/05/05 04:22:52;;;;;;;11.85;5.38;;;;;;;8.26;100.00;96813.88;5047547;28;20114;-76
2022/05/05 04:25:18;;;;;;;14.15;6.18;;;;;;;8.30;100.00;96820.38;5048237;28;20186;-74
2022/05/05 04:27:45;;;;;;;12.98;5.45;;;;;;;8.29;100.00;96819.56;5051510;28;20119;-73
2022/05/05 04:30:14;;;;;;;15.20;5.70;;;;;;;8.42;100.00;96831.94;5045562;28;20459;-74
2022/05/05 04:32:40;;;;;;;17.15;7.00;;;;;;;8.46;100.00;96821.63;5054598;28;20574;-73
2022/05/05 04:35:06;;;;;;;15.88;6.90;;;;;;;8.50;100.00;96825.50;5048226;28;20044;-73
2022/05/05 04:37:32;;;;;;;21.20;7.07;;;;;;;8.49;100.00;96824.69;5046501;28;20067;-73
2022/05/05 04:39:58;;;;;;;20.20;8.27;;;;;;;8.53;100.00;96831.19;5046841;28;20242;-74
2022/05/05 04:42:25;;;;;;;21.17;8.45;;;;;;;8.46;100.00;96830.44;5045171;28;20028;-73
2022/05/05 04:44:51;;;;;;;18.35;8.07;;;;;;;8.55;100.00;96830.94;5046246;28;20029;-73
2022/05/05 04:47:17;;;;;;;21.70;8.18;;;;;;;8.62;100.00;96843.16;5046237;28;20499;-73
2022/05/05 04:49:42;;;;;;;16.30;7.43;;;;;;;8.64;100.00;96842.94;5045079;28;20501;-75
2022/05/05 04:52:08;;;;;;;17.83;7.38;;;;;;;8.77;100.00;96844.59;5045432;28;20053;-75
2022/05/05 04:54:33;;;;;;;16.60;6.32;;;;;;;8.74;100.00;96843.22;5048333;28;20032;-73
2022/05/05 04:57:00;;;;;;;14.18;6.30;;;;;;;8.73;100.00;96849.59;5048178;28;20088;-73
2022/05/05 04:59:26;;;;;;;16.95;6.28;;;;;;;8.88;100.00;96844.66;5047902;28;20380;-73
2022/05/05 05:01:51;;;;;;;12.32;5.65;;;;;;;9.00;100.00;96858.00;5079439;27;20144;-73
2022/05/05 05:04:17;;;;;;;14.40;5.78;;;;;;;9.14;100.00;96851.44;5045123;28;20051;-74
2022/05/05 05:06:42;;;;;;;10.77;5.03;;;;;;;9.17;100.00;96853.63;5049099;28;20527;-76
2022/05/05 05:09:08;;;;;;;14.13;5.07;;;;;;;9.33;100.00;96856.66;5045153;28;20519;-74
2022/05/05 05:11:33;;;;;;;9.60;4.90;;;;;;;9.44;100.00;96859.38;5048771;28;20257;-73
2022/05/05 05:13:59;;;;;;;12.40;4.45;;;;;;;9.55;100.00;96871.09;5046927;28;20049;-76
2022/05/05 05:16:25;;;;;;;8.40;4.57;;;;;;;9.63;100.00;96865.41;5044271;28;20640;-73
2022/05/05 05:18:53;;;;;;;9.88;4.65;;;;;;;9.70;100.00;96865.28;5045131;28;20033;-73
2022/05/05 05:21:20;;;;;;;15.68;5.35;;;;;;;9.71;100.00;96873.06;5044877;28;20044;-76
2022/05/05 05:23:45;;;;;;;15.88;4.70;;;;;;;9.76;100.00;96875.88;5045229;28;20055;-74
2022/05/05 05:26:11;;;;;;;10.57;4.50;;;;;;;9.80;100.00;96878.06;5044670;28;20032;-74
2022/05/05 05:28:36;;;;;;;12.40;4.93;;;;;;;9.80;100.00;96876.19;5045236;28;20044;-73
2022/05/05 05:31:01;;;;;;;9.00;4.15;;;;;;;9.79;100.00;96890.59;5047427;28;20309;-73
2022/05/05 05:33:27;;;;;;;11.50;4.65;;;;;;;9.76;100.00;96888.41;5046497;28;20067;-75
2022/05/05 05:35:52;;;;;;;11.25;4.45;;;;;;;9.78;100.00;96897.00;5046356;28;20095;-74
2022/05/05 05:38:20;;;;;;;10.95;4.70;;;;;;;9.91;100.00;96890.63;5044253;28;20086;-73
2022/05/05 05:40:45;;;;;;;12.38;4.53;;;;;;;9.96;100.00;96894.22;5047133;28;20041;-73
2022/05/05 05:43:11;;;;;;;14.52;4.70;;;;;;;10.05;100.00;96902.69;5044714;28;20053;-76
2022/05/05 05:45:36;;;;;;;11.45;4.05;;;;;;;10.21;100.00;96891.28;5046502;28;20369;-73
2022/05/05 05:48:04;;;;;;;9.40;3.95;;;;;;;10.17;100.00;96898.13;5045928;28;20049;-75
2022/05/05 05:50:30;;;;;;;10.45;4.65;;;;;;;10.04;100.00;96899.22;5045352;28;20045;-73
2022/05/05 05:52:57;;;;;;;9.63;3.85;;;;;;;10.09;100.00;96893.16;5044592;28;20103;-73
2022/05/05 05:55:23;;;;;;;9.88;4.57;;;;;;;10.11;100.00;96896.41;5044449;28;20040;-73
2022/05/05 05:57:48;;;;;;;8.75;4.50;;;;;;;10.16;100.00;96899.19;5046319;28;20049;-73
2022/05/05 06:00:14;;;;;;;9.82;4.30;;;;;;;10.38;100.00;96903.97;5045469;28;20553;-75
2022/05/05 06:05:23;;;;;;;10.57;3.97;;;;;;;10.67;100.00;96894.91;5047023;28;20101;-72
2022/05/05 06:07:49;;;;;;;9.95;4.28;;;;;;;10.79;100.00;96898.34;5048849;28;20049;-73
2022/05/05 06:10:17;;;;;;;11.43;4.40;;;;;;;10.91;100.00;96905.53;5044287;28;20148;-72
2022/05/05 06:12:43;;;;;;;9.10;3.78;;;;;;;10.95;100.00;96901.31;5046012;28;20349;-72
2022/05/05 06:15:09;;;;;;;8.85;3.97;;;;;;;11.18;100.00;96911.09;5045216;28;20094;-73
2022/05/05 06:17:35;;;;;;;9.07;4.15;;;;;;;11.32;100.00;96913.25;5042668;28;20033;-73
2022/05/05 06:20:00;;;;;;;8.38;3.80;;;;;;;11.40;100.00;96910.16;5047081;28;20048;-73
2022/05/05 06:22:26;;;;;;;9.27;4.20;;;;;;;11.48;100.00;96913.50;5043531;28;20079;-76
2022/05/05 06:24:51;;;;;;;8.15;4.85;;;;;;;11.40;100.00;96915.53;5051502;28;20116;-73
2022/05/05 06:27:17;;;;;;;10.18;4.05;;;;;;;11.41;100.00;96914.47;5045320;28;20434;-73
2022/05/05 06:29:42;;;;;;;10.25;4.25;;;;;;;11.46;100.00;96910.25;5047266;28;20040;-76
2022/05/05 06:32:08;;;;;;;10.02;4.65;;;;;;;11.33;100.00;96912.19;5041941;28;20352;-73
2022/05/05 06:34:33;;;;;;;11.85;4.43;;;;;;;11.35;100.00;96918.09;5045593;28;20037;-72
2022/05/05 06:36:59;;;;;;;9.95;4.82;;;;;;;11.52;100.00;96917.34;5047925;28;20420;-74
2022/05/05 06:39:25;;;;;;;10.77;4.20;;;;;;;11.63;100.00;96913.75;5046870;28;20563;-72
2022/05/05 06:41:50;;;;;;;10.65;4.50;;;;;;;11.64;100.00;96915.38;5048729;28;20073;-72
2022/05/05 06:44:16;;;;;;;10.57;4.40;;;;;;;11.66;100.00;96924.78;5045275;28;20552;-74
2022/05/05 06:46:41;;;;;;;12.73;4.50;;;;;;;11.76;100.00;96928.69;5050750;28;20108;-73
2022/05/05 06:49:07;;;;;;;8.73;4.20;;;;;;;11.78;100.00;96929.25;5046007;28;20041;-73
2022/05/05 06:51:33;;;;;;;14.38;4.50;;;;;;;11.74;100.00;96928.91;5052266;28;20268;-73
2022/05/05 06:53:58;;;;;;;12.45;4.80;;;;;;;11.83;100.00;96934.72;5049203;28;20045;-72
2022/05/05 06:56:25;;;;;;;6.88;3.78;;;;;;;11.93;100.00;96935.69;5050795;28;20551;-72
2022/05/05 06:58:50;;;;;;;10.05;4.18;;;;;;;12.07;100.00;96938.06;5046873;28;20324;-75
2022/05/05 07:06:44;;;;;;;17.70;4.07;;;;;;;12.38;100.00;96932.06;5049007;28;20048;-73
2022/05/05 07:11:54;;;;;;;14.63;4.70;;;;;;;12.54;100.00;96928.50;5049331;28;20364;-73
2022/05/05 07:14:19;;;;;;;9.57;4.00;;;;;;;12.75;100.00;96940.28;5050063;28;20445;-72
2022/05/05 07:16:45;;;;;;;12.02;4.20;;;;;;;12.95;99.96;96945.09;5048732;28;20096;-75
2022/05/05 07:19:10;;;;;;;9.70;4.00;;;;;;;13.11;98.93;96941.50;5047671;28;20033;-73
2022/05/05 07:21:37;;;;;;;10.27;3.85;;;;;;;13.30;99.38;96951.94;5051215;28;20041;-76
2022/05/05 07:24:04;;;;;;;11.40;4.20;;;;;;;13.33;96.34;96949.56;5048340;28;20403;-72
2022/05/05 07:26:29;;;;;;;10.02;4.38;;;;;;;13.47;96.60;96949.97;5050940;28;20052;-74
2022/05/05 07:28:55;;;;;;;9.45;4.05;;;;;;;13.45;96.36;96957.47;5047144;28;20402;-72
2022/05/05 07:31:20;;;;;;;8.10;4.22;;;;;;;13.41;97.85;96956.38;5047622;28;20143;-72
2022/05/05 07:33:45;;;;;;;9.07;4.03;;;;;;;13.36;96.52;96959.81;5049711;28;20545;-73
2022/05/05 07:36:11;;;;;;;10.90;3.72;;;;;;;13.36;96.45;96959.00;5048593;28;20063;-73
2022/05/05 07:38:37;;;;;;;10.07;4.07;;;;;;;13.54;96.03;96960.50;5049389;28;20630;-73
2022/05/05 07:41:03;;;;;;;11.43;4.03;;;;;;;13.62;96.02;96962.75;5046695;28;20040;-76
2022/05/05 07:43:29;;;;;;;10.32;4.05;;;;;;;13.49;96.28;96955.91;5048222;28;20481;-73
2022/05/05 07:45:54;;;;;;;11.02;4.05;;;;;;;13.65;95.64;96959.53;5048990;28;20045;-74
2022/05/05 07:48:20;;;;;;;7.35;4.07;;;;;;;13.81;95.62;96968.56;5050129;28;20072;-74
2022/05/05 07:50:47;;;;;;;9.20;3.92;;;;;;;13.84;95.15;96968.03;5050734;28;20068;-73
2022/05/05 07:53:13;;;;;;;13.73;4.47;;;;;;;13.91;96.10;96960.56;5048003;28;20106;-76
2022/05/05 07:55:39;;;;;;;15.00;4.68;;;;;;;13.95;96.51;96961.69;5047017;28;20070;-73
2022/05/05 07:58:04;;;;;;;9.55;4.00;;;;;;;14.18;94.50;96963.19;5049756;28;20041;-73
2022/05/05 08:00:30;;;;;;;10.18;4.03;;;;;;;14.17;95.12;96962.38;5049051;28;20037;-75
2022/05/05 08:02:55;;;;;;;8.68;4.07;;;;;;;14.37;95.37;96961.69;5048224;28;20051;-73
2022/05/05 08:05:21;;;;;;;11.10;4.10;;;;;;;14.48;93.83;96957.22;5048102;28;20036;-73
2022/05/05 08:07:49;;;;;;;11.52;4.15;;;;;;;14.33;92.32;96959.78;5048867;28;20036;-75
2022/05/05 08:10:16;;;;;;;9.90;4.25;;;;;;;14.33;93.44;96957.91;5046728;28;20040;-73
2022/05/05 08:12:42;;;;;;;10.82;4.45;;;;;;;14.65;90.73;96963.22;5048424;28;20059;-73
2022/05/05 08:15:08;;;;;;;10.98;4.25;;;;;;;14.75;90.92;96960.56;5047470;28;20045;-76
2022/05/05 08:17:34;;;;;;;9.63;4.32;;;;;;;14.86;89.73;96966.00;5049269;28;20087;-72
2022/05/05 08:20:05;;;;;;;16.50;5.05;;;;;;;14.94;88.68;96966.31;5048063;28;20170;-73
2022/05/05 08:22:31;;;;;;;;;;;;;;;15.14;85.80;96970.97;5047633;28;20491;-74
2022/05/05 08:30:25;;;;;;;12.15;4.25;;;;;;;15.13;87.26;96977.41;5047999;28;20048;-74
2022/05/05 08:32:51;;;;;;;9.23;4.50;;;;;;;15.02;87.73;96976.59;5047593;28;20076;-73
2022/05/05 08:35:16;;;;;;;10.40;5.00;;;;;;;14.79;87.98;96977.03;5048232;28;20392;-73
2022/05/05 08:37:42;;;;;;;13.13;4.97;;;;;;;14.92;90.46;96973.03;5050130;28;20299;-76
2022/05/05 08:40:12;;;;;;;12.35;5.25;;;;;;;15.18;88.02;96980.16;5046731;28;20124;-73
2022/05/05 08:42:37;;;;;;;14.77;5.80;;;;;;;15.12;86.13;96983.09;5048933;28;20033;-73
2022/05/05 08:45:04;;;;;;;11.18;5.07;;;;;;;15.18;85.16;96980.16;5048601;28;20048;-75
2022/05/05 08:47:32;;;;;;;14.82;6.05;;;;;;;15.36;83.07;96978.84;5048133;28;20048;-74
2022/05/05 08:50:00;;;;;;;14.77;6.60;;;;;;;15.47;84.36;96991.25;5045361;28;20583;-73
2022/05/05 08:52:31;;;;;;;14.77;7.05;;;;;;;15.70;82.66;96987.28;5048188;28;20041;-73
2022/05/05 08:54:56;;;;;;;;;;;;;;;15.51;84.28;96991.56;5049567;28;20792;-73
2022/05/05 08:57:23;;;;;;;14.90;6.25;;;;;;;15.44;85.58;96988.28;5044092;28;19924;-73
2022/05/05 08:59:48;;;;;;;14.75;6.53;;;;;;;15.82;82.34;96990.53;5047582;28;20374;-73
2022/05/05 09:02:14;;;;;;;13.82;6.32;;;;;;;15.85;81.56;96984.59;5044145;28;20059;-73
2022/05/05 09:04:44;;;;;;;14.48;6.03;;;;;;;15.93;80.21;96990.53;5045960;28;20049;-73
2022/05/05 09:07:10;;;;;;;16.48;7.00;;;;;;;16.06;76.80;96990.00;5056523;28;20055;-74
2022/05/05 09:09:36;;;;;;;14.10;6.03;;;;;;;16.06;78.76;96995.41;5046935;28;20032;-73
2022/05/05 09:12:12;;;;;;;13.10;6.95;;;;;;;15.95;76.16;96996.47;5049290;28;20083;-73
2022/05/05 09:14:53;;;;;;;15.02;5.40;;;;;;;15.88;79.45;96997.56;5046302;28;20146;-71
2022/05/05 09:17:18;;;;;;;11.05;5.20;;;;;;;15.94;78.90;96989.47;5047672;28;20043;-71
2022/05/05 09:19:49;;;;;;;11.23;5.05;;;;;;;15.86;76.27;96988.91;5052183;28;20037;-71
2022/05/05 09:22:17;;;;;;;16.15;5.57;;;;;;;15.80;82.30;96992.72;5052202;28;20234;-71
2022/05/05 09:24:44;;;;;;;11.43;6.07;;;;;;;15.94;85.55;96990.25;5050668;28;20036;-74
2022/05/05 09:27:17;;;;;;;13.30;5.65;;;;;;;16.02;79.23;96995.13;5047289;28;20051;-73
2022/05/05 09:29:59;;;;;;;14.18;5.93;;;;;;;16.15;75.34;96999.19;5045515;28;20065;-74
2022/05/05 09:32:55;;;;;;;12.02;5.50;;;;;;;16.29;74.64;96994.84;5047078;28;20140;-73
2022/05/05 09:35:21;;;;;;;12.30;5.75;;;;;;;16.34;75.40;97002.13;5043915;28;20049;-72
2022/05/05 09:37:54;;;;;;;13.07;5.93;;;;;;;16.55;85.31;97000.22;5046501;28;20049;-72
2022/05/05 09:40:21;;;;;;;14.48;6.55;;;;;;;16.76;71.85;97001.81;5045551;28;20535;-72
2022/05/05 09:42:50;;;;;;;13.25;6.28;;;;;;;17.22;73.12;97005.16;5045172;28;20400;-74
2022/05/05 09:45:29;;;;;;;12.07;6.22;;;;;;;17.82;62.04;96997.00;5077820;28;20048;-75
2022/05/05 09:47:58;;;;;;;12.35;6.22;;;;;;;18.36;73.96;96998.72;5060682;28;20049;-71
2022/05/05 09:50:28;;;;;;;12.20;6.68;;;;;;;18.74;65.83;97007.06;5045943;28;20047;-71
2022/05/05 09:58:34;;;;;;;15.23;6.32;;;;;;;18.23;60.58;97004.81;5062615;28;20084;-71
2022/05/05 10:01:08;;;;;;;15.57;6.40;;;;;;;18.15;65.48;97008.13;5046235;28;20132;-70
2022/05/05 10:04:00;;;;;;;18.23;5.93;;;;;;;18.19;59.98;97004.56;5048120;28;20279;-73
2022/05/05 10:06:52;;;;;;;14.55;6.47;;;;;;;18.59;57.44;97006.06;5045951;28;20094;-74
2022/05/05 10:09:18;;;;;;;15.35;6.90;;;;;;;17.96;56.89;97002.56;5046997;28;20044;-72
2022/05/05 10:11:43;;;;;;;13.55;6.15;;;;;;;18.05;58.87;96999.00;5049730;28;20028;-72
2022/05/05 10:14:10;;;;;;;19.08;6.95;;;;;;;18.59;62.42;97006.06;5050996;28;20052;-73
2022/05/05 10:16:38;;;;;;;16.27;6.20;;;;;;;18.89;56.26;96999.56;5049224;28;20519;-73
2022/05/05 10:19:04;;;;;;;11.80;5.88;;;;;;;19.22;55.23;96999.72;5050770;28;20076;-72
2022/05/05 10:21:54;;;;;;;15.50;7.07;;;;;;;19.52;50.53;97003.94;5050773;28;20561;-75
2022/05/05 10:24:38;;;;;;;13.02;6.13;;;;;;;19.33;50.77;96992.25;5050443;28;20055;-71
2022/05/05 10:27:04;;;;;;;10.05;6.07;;;;;;;19.09;68.95;96976.03;5050718;28;20041;-73
2022/05/05 10:29:43;;;;;;;12.63;6.95;;;;;;;18.85;66.72;96997.72;5046831;28;20466;-73
2022/05/05 10:32:25;;;;;;;16.42;6.57;;;;;;;18.87;54.83;97000.94;5049028;28;20045;-73
2022/05/05 10:34:54;;;;;;;14.15;6.53;;;;;;;19.14;55.17;97000.34;5047089;28;20465;-75
2022/05/05 10:37:30;;;;;;;14.45;6.32;;;;;;;19.41;50.87;96994.31;5051459;28;20221;-72
2022/05/05 10:40:04;;;;;;;14.02;5.93;;;;;;;19.65;50.01;96994.28;5049188;28;20162;-72
2022/05/05 10:42:31;;;;;;;15.70;6.72;;;;;;;19.76;51.22;96993.84;5050800;28;20040;-70
2022/05/05 10:45:05;;;;;;;13.38;7.05;;;;;;;20.53;45.35;96979.84;5052313;28;20048;-72
2022/05/05 10:47:49;;;;;;;19.77;6.75;;;;;;;20.99;43.81;96980.88;5050706;28;20047;-71
2022/05/05 10:51:00;;;;;;;14.00;6.20;;;;;;;21.42;44.04;96990.34;5047899;28;20048;-75
2022/05/05 10:53:36;;;;;;;13.80;5.57;;;;;;;21.40;42.69;96987.16;4349260;28;10001192;-72
2022/05/05 10:56:05;;;;;;;14.27;7.05;;;;;;;21.79;42.04;97004.81;5047420;28;20390;-76
2022/05/05 10:58:56;;;;;;;14.55;7.05;;;;;;;21.23;42.70;96986.91;5047155;28;20029;-76
2022/05/05 11:01:21;;;;;;;15.32;6.22;;;;;;;21.09;44.54;96992.38;5048319;28;20299;-74
2022/05/05 11:04:07;;;;;;;10.90;5.63;;;;;;;21.13;43.04;96992.56;5045918;28;20041;-71
2022/05/05 11:06:34;;;;;;;18.23;6.10;;;;;;;21.19;44.15;96999.53;5051069;28;20048;-72
2022/05/05 11:08:59;;;;;;;12.93;6.30;;;;;;;20.98;44.50;96990.16;5047781;28;20047;-73
2022/05/05 11:11:40;;;;;;;15.30;6.32;;;;;;;20.93;46.27;96985.59;5048223;28;20578;-71
2022/05/05 11:23:10;;;;;;;15.55;7.10;;;;;;;20.69;50.03;96993.16;5046484;28;20676;-71
2022/05/05 11:25:43;;;;;;;11.73;6.57;;;;;;;20.28;46.53;96991.94;5049438;28;20064;-75
2022/05/05 11:28:09;;;;;;;13.43;6.05;;;;;;;20.75;45.02;96987.31;5045473;28;20044;-71
2022/05/05 11:30:35;;;;;;;16.80;7.40;;;;;;;20.70;45.61;96976.56;5046441;28;20102;-72
2022/05/05 11:33:03;;;;;;;13.20;7.20;;;;;;;20.90;46.33;96983.50;5050504;28;20048;-72
2022/05/05 11:35:29;;;;;;;15.45;6.75;;;;;;;20.86;46.80;96987.94;5049217;28;20060;-72
2022/05/05 11:37:55;;;;;;;16.98;6.80;;;;;;;20.41;51.66;96984.94;5045076;28;20060;-72
2022/05/05 11:40:20;;;;;;;12.48;6.20;;;;;;;20.35;51.20;96985.31;5047385;28;20499;-74
2022/05/05 11:45:34;;;;;;;11.77;6.80;;;;;;;19.80;48.16;96994.06;5048730;28;20102;-72
2022/05/05 11:48:14;;;;;;;12.45;6.72;;;;;;;20.05;50.87;96990.16;5045065;28;20238;-71
2022/05/05 11:50:45;;;;;;;13.30;7.28;;;;;;;20.71;46.28;96990.97;5048323;28;20279;-72
2022/05/05 11:53:15;;;;;;;12.27;6.93;;;;;;;21.33;42.82;96989.47;5046433;28;20484;-71
2022/05/05 11:55:44;;;;;;;13.83;6.73;;;;;;;21.64;39.58;96986.09;5048133;28;20529;-71
2022/05/05 12:04:00;;;;;;;16.27;6.93;;;;;;;21.27;46.15;96974.34;5046161;28;20053;-73
2022/05/05 12:06:27;;;;;;;11.68;7.20;;;;;;;21.25;46.68;96983.91;5047272;28;20040;-72
2022/05/05 12:08:53;;;;;;;17.42;7.55;;;;;;;20.46;43.59;96990.28;5045692;28;20411;-72
2022/05/05 12:11:19;;;;;;;15.70;6.55;;;;;;;20.40;44.59;96987.94;5048279;28;20129;-74
2022/05/05 12:13:44;;;;;;;8.73;5.38;;;;;;;20.08;46.94;96989.56;5049288;28;20127;-71
2022/05/05 12:16:12;;;;;;;10.35;5.50;;;;;;;19.67;47.26;96998.31;5046307;28;20040;-70
2022/05/05 12:18:50;;;;;;;11.23;6.30;;;;;;;19.23;47.97;96989.69;5047082;28;20048;-74